Time;durP1;ratioP1;P1;durP2;ratioP2;P2;SDS_P1;SDS_P2;PMS_P1;PMS_P2;Temp;Humidity;BMP_temperature;BMP_pressure;BME280_temperature;BME280_humidity;BME280_pressure;Samples;Min_cycle;Max_cycle;Signal;HPM_P1;HPM_P2
2024/01/23 00:00:13;;;;;;;33.83;6.72;;;8.30;99.90;;;;;;5035355;28;20037;-69
2024/01/23 00:02:38;;;;;;;23.25;4.30;;;8.30;99.90;;;;;;5035511;28;20084;-70
2024/01/23 00:05:04;;;;;;;27.80;5.20;;;8.30;99.90;;;;;;5034964;28;20021;-70
2024/01/23 00:07:30;;;;;;;29.38;5.80;;;8.30;99.90;;;;;;5035443;28;20025;-70
2024/01/23 00:09:55;;;;;;;32.85;6.95;;;8.30;99.90;;;;;;5034825;28;20478;-70
2024/01/23 00:12:21;;;;;;;34.80;10.88;;;8.20;99.90;;;;;;5035663;28;20041;-70
2024/01/23 00:14:46;;;;;;;27.55;5.90;;;8.30;99.90;;;;;;5034989;28;20063;-70
2024/01/23 01:33:27;;;;;;;30.13;5.45;;;7.80;99.90;;;;;;5010758;28;20421;-68
2024/01/23 01:35:53;;;;;;;37.92;5.97;;;7.80;99.90;;;;;;5033696;28;20069;-69
2024/01/23 01:38:19;;;;;;;30.08;5.75;;;7.80;99.90;;;;;;5033634;28;20087;-70
2024/01/23 01:40:45;;;;;;;30.23;5.75;;;7.90;99.90;;;;;;5033347;28;20424;-69
2024/01/23 01:43:25;;;;;;;31.52;6.20;;;7.90;99.90;;;;;;5032345;28;20116;-69
2024/01/23 01:46:28;;;;;;;28.52;5.53;;;7.90;99.90;;;;;;5033633;28;20021;-69
2024/01/23 01:48:54;;;;;;;30.15;6.00;;;7.80;99.90;;;;;;5033282;28;20029;-69
2024/01/23 01:51:23;;;;;;;30.88;6.57;;;7.80;99.90;;;;;;5033162;28;20113;-69
2024/01/23 01:53:49;;;;;;;32.50;6.32;;;7.80;99.90;;;;;;5033467;28;20167;-69
2024/01/23 01:56:18;;;;;;;32.75;6.47;;;7.90;99.90;;;;;;5033140;28;20026;-69
2024/01/23 01:58:45;;;;;;;25.38;5.97;;;7.90;99.90;;;;;;5033235;28;20036;-69
2024/01/23 02:01:11;;;;;;;27.70;5.00;;;8.00;99.90;;;;;;5032991;28;20029;-69
2024/01/23 02:03:37;;;;;;;31.98;6.70;;;8.00;99.90;;;;;;5032609;28;20056;-69
2024/01/23 02:06:04;;;;;;;30.83;6.93;;;8.00;99.90;;;;;;5033242;28;20110;-70
2024/01/23 02:08:30;;;;;;;27.88;6.78;;;7.90;99.90;;;;;;5031638;28;20033;-69
2024/01/23 02:10:55;;;;;;;27.48;6.43;;;8.00;99.90;;;;;;5033417;28;20083;-68
2024/01/23 02:13:22;;;;;;;36.58;6.32;;;8.00;99.90;;;;;;5032827;28;20416;-69
2024/01/23 02:15:48;;;;;;;32.65;6.78;;;8.00;99.90;;;;;;5032869;28;20025;-69
2024/01/23 02:18:13;;;;;;;30.35;6.10;;;8.00;99.90;;;;;;5032750;28;20448;-69
2024/01/23 02:20:39;;;;;;;28.15;5.20;;;8.00;99.90;;;;;;5032976;28;20025;-69
2024/01/23 02:23:04;;;;;;;27.00;5.88;;;7.90;99.90;;;;;;5032612;28;20103;-69
2024/01/23 02:25:30;;;;;;;30.92;5.50;;;7.90;99.90;;;;;;5032905;28;20033;-69
2024/01/23 02:27:57;;;;;;;30.63;6.00;;;7.90;99.90;;;;;;5033007;28;20034;-69
2024/01/23 02:30:23;;;;;;;28.85;5.65;;;7.90;99.90;;;;;;5032936;28;20079;-69
2024/01/23 02:32:48;;;;;;;32.78;6.13;;;7.90;99.90;;;;;;5032773;28;20030;-69
2024/01/23 02:35:14;;;;;;;32.65;6.47;;;7.90;99.90;;;;;;5032624;28;20049;-69
2024/01/23 02:37:39;;;;;;;29.98;6.88;;;7.80;99.90;;;;;;5032670;28;20112;-68
2024/01/23 02:40:06;;;;;;;30.33;6.30;;;7.80;99.90;;;;;;5032603;28;20067;-69
2024/01/23 02:42:32;;;;;;;32.67;5.78;;;7.80;99.90;;;;;;5032541;28;20025;-69
2024/01/23 02:44:57;;;;;;;26.00;5.25;;;7.80;99.90;;;;;;5032368;28;20507;-69
2024/01/23 02:47:23;;;;;;;32.33;6.13;;;7.80;99.90;;;;;;5032394;28;20057;-69
2024/01/23 02:49:49;;;;;;;32.78;5.68;;;7.90;99.90;;;;;;5032540;28;20025;-69
2024/01/23 02:52:15;;;;;;;25.90;5.75;;;7.80;99.90;;;;;;5032230;28;20120;-68
2024/01/23 02:54:40;;;;;;;32.65;6.20;;;7.80;99.90;;;;;;5032406;28;20029;-69
2024/01/23 02:57:06;;;;;;;34.97;5.88;;;7.80;99.90;;;;;;5032508;28;20358;-69
2024/01/23 02:59:32;;;;;;;31.77;6.95;;;7.80;99.90;;;;;;5032028;28;20057;-69
2024/01/23 03:01:57;;;;;;;28.30;6.40;;;7.80;99.90;;;;;;5031006;28;20498;-69
2024/01/23 03:04:23;;;;;;;31.50;7.38;;;7.70;99.90;;;;;;5032307;28;20056;-69
2024/01/23 03:06:48;;;;;;;30.70;6.13;;;7.70;99.90;;;;;;5032246;28;20453;-69
2024/01/23 03:09:14;;;;;;;33.50;5.97;;;7.70;99.90;;;;;;5032298;28;20037;-69
2024/01/23 03:11:40;;;;;;;32.90;6.78;;;7.70;99.90;;;;;;5032428;28;20413;-69
2024/01/23 03:14:06;;;;;;;33.97;6.43;;;7.70;99.90;;;;;;5032497;28;20040;-69
2024/01/23 03:16:31;;;;;;;28.67;5.70;;;7.70;99.90;;;;;;5032151;28;20088;-69
2024/01/23 03:18:57;;;;;;;31.30;6.25;;;7.70;99.90;;;;;;5031515;28;21380;-69
2024/01/23 03:21:22;;;;;;;36.03;6.85;;;7.70;99.90;;;;;;5036342;28;20035;-69
2024/01/23 03:23:48;;;;;;;31.98;6.63;;;7.70;99.90;;;;;;5037897;28;20041;-69
2024/01/23 03:26:13;;;;;;;30.67;6.10;;;7.70;99.90;;;;;;5035922;28;20048;-69
2024/01/23 03:28:39;;;;;;;34.13;6.60;;;7.70;99.90;;;;;;5035796;28;20453;-70
2024/01/23 03:31:05;;;;;;;33.95;7.05;;;7.60;99.90;;;;;;5035916;28;20029;-69
2024/01/23 03:33:31;;;;;;;30.48;5.85;;;7.60;99.90;;;;;;5035516;28;20109;-68
2024/01/23 03:35:56;;;;;;;29.25;6.88;;;7.60;99.90;;;;;;5034524;28;20474;-68
2024/01/23 03:38:22;;;;;;;36.85;7.22;;;7.60;99.90;;;;;;5035547;28;20025;-68
2024/01/23 03:40:47;;;;;;;35.50;7.13;;;7.60;99.90;;;;;;5036129;28;20034;-68
2024/01/23 03:43:13;;;;;;;27.08;5.80;;;7.60;99.90;;;;;;5035778;28;20036;-69
2024/01/23 03:45:38;;;;;;;30.95;6.65;;;7.60;99.90;;;;;;5036074;28;20107;-68
2024/01/23 03:48:04;;;;;;;29.10;5.93;;;7.60;99.90;;;;;;5036256;28;20025;-68
2024/01/23 03:50:30;;;;;;;30.15;5.68;;;7.60;99.90;;;;;;5035888;28;20442;-69
2024/01/23 03:52:56;;;;;;;26.63;5.55;;;7.70;99.90;;;;;;5035776;28;20041;-68
2024/01/23 03:55:22;;;;;;;31.40;7.13;;;7.70;99.90;;;;;;5035752;28;20025;-69
2024/01/23 03:57:47;;;;;;;32.75;6.97;;;7.70;99.90;;;;;;5035992;28;20458;-69
2024/01/23 04:00:13;;;;;;;28.75;6.32;;;7.70;99.90;;;;;;5035519;28;20079;-69
2024/01/23 04:02:39;;;;;;;34.22;6.18;;;7.80;99.90;;;;;;5035693;28;20128;-69
2024/01/23 04:05:06;;;;;;;35.30;6.35;;;7.90;99.90;;;;;;5035544;28;20028;-68
2024/01/23 04:07:33;;;;;;;31.02;6.47;;;7.90;99.90;;;;;;5035154;28;20033;-68
2024/01/23 04:09:58;;;;;;;31.13;5.72;;;8.00;99.90;;;;;;5035093;28;20412;-68
2024/01/23 04:12:24;;;;;;;31.75;6.38;;;8.00;99.90;;;;;;5035353;28;20030;-68
2024/01/23 04:14:49;;;;;;;34.55;6.70;;;8.10;99.90;;;;;;5035250;28;20040;-69
2024/01/23 04:17:15;;;;;;;35.55;6.72;;;8.10;99.90;;;;;;5034570;28;20021;-69
2024/01/23 04:19:41;;;;;;;36.45;6.38;;;8.00;99.90;;;;;;5034625;28;20485;-69
2024/01/23 04:22:06;;;;;;;30.73;6.28;;;8.00;99.90;;;;;;5034951;28;20034;-69
2024/01/23 04:24:36;;;;;;;39.70;7.45;;;8.00;99.90;;;;;;5035029;28;20022;-70
2024/01/23 04:27:03;;;;;;;34.40;5.85;;;8.00;99.90;;;;;;5034767;28;20017;-69
2024/01/23 04:29:28;;;;;;;37.28;7.25;;;8.00;99.90;;;;;;5035021;28;20029;-69
2024/01/23 04:31:54;;;;;;;32.33;6.55;;;7.90;99.90;;;;;;5034972;28;20021;-69
2024/01/23 04:34:19;;;;;;;32.72;6.47;;;7.90;99.90;;;;;;5034595;28;20041;-69
2024/01/23 04:36:45;;;;;;;32.67;6.70;;;7.80;99.90;;;;;;5034651;28;20029;-69
2024/01/23 04:39:11;;;;;;;36.65;7.97;;;7.80;99.90;;;;;;5034550;28;20086;-69
2024/01/23 04:41:37;;;;;;;28.98;6.82;;;7.80;99.90;;;;;;5034670;28;20032;-69
2024/01/23 04:44:03;;;;;;;34.15;6.05;;;7.80;99.90;;;;;;5034543;28;20018;-68
2024/01/23 04:46:29;;;;;;;31.83;6.53;;;7.70;99.90;;;;;;5034340;28;20513;-69
2024/01/23 04:48:54;;;;;;;36.25;6.93;;;7.80;99.90;;;;;;5033212;28;20048;-69
2024/01/23 04:51:20;;;;;;;28.58;6.75;;;7.70;99.90;;;;;;5034853;28;20026;-69
2024/01/23 04:53:47;;;;;;;34.47;6.63;;;7.70;99.90;;;;;;5034470;28;20025;-69
2024/01/23 04:56:13;;;;;;;30.77;7.65;;;7.70;99.90;;;;;;5031887;28;20029;-69
2024/01/23 04:58:39;;;;;;;32.35;6.38;;;7.70;99.90;;;;;;5034459;28;20033;-69
2024/01/23 05:01:04;;;;;;;32.75;6.53;;;7.70;99.90;;;;;;5034330;28;20025;-69
2024/01/23 05:03:30;;;;;;;35.13;6.47;;;7.70;99.90;;;;;;5034176;28;20373;-69
2024/01/23 05:05:55;;;;;;;32.10;6.75;;;7.70;99.90;;;;;;5034452;28;20037;-69
2024/01/23 05:08:21;;;;;;;30.70;7.15;;;7.70;99.90;;;;;;5033931;28;20083;-69
2024/01/23 05:10:48;;;;;;;40.80;7.15;;;7.70;99.90;;;;;;5034088;28;20091;-69
2024/01/23 05:13:13;;;;;;;29.23;6.65;;;7.70;99.90;;;;;;5034058;28;20022;-70
2024/01/23 05:15:39;;;;;;;33.85;7.15;;;7.60;99.90;;;;;;5033741;28;20477;-69
2024/01/23 05:18:07;;;;;;;32.60;6.85;;;7.60;99.90;;;;;;5033931;28;20021;-69
2024/01/23 05:20:36;;;;;;;33.33;6.47;;;7.60;99.90;;;;;;5031258;28;20033;-68
2024/01/23 05:23:03;;;;;;;35.97;6.85;;;7.60;99.90;;;;;;5033478;28;20452;-68
2024/01/23 05:25:29;;;;;;;28.80;6.40;;;7.60;99.90;;;;;;5032520;28;20022;-69
2024/01/23 05:27:54;;;;;;;33.95;6.78;;;7.60;99.90;;;;;;5033447;28;20029;-69
2024/01/23 05:30:20;;;;;;;33.30;7.13;;;7.60;99.90;;;;;;5033740;28;20025;-69
2024/01/23 05:32:46;;;;;;;35.53;7.10;;;7.60;99.90;;;;;;5033731;28;20422;-69
2024/01/23 05:35:11;;;;;;;42.67;7.30;;;7.60;99.90;;;;;;5033534;28;20516;-69
2024/01/23 05:37:37;;;;;;;34.92;6.93;;;7.60;99.90;;;;;;5033658;28;20109;-69
2024/01/23 05:40:07;;;;;;;35.30;7.55;;;7.60;99.90;;;;;;5033415;28;20076;-69
2024/01/23 05:42:32;;;;;;;35.63;7.50;;;7.60;99.90;;;;;;5030544;28;20377;-69
2024/01/23 05:44:58;;;;;;;32.88;7.20;;;7.60;99.90;;;;;;5033137;28;20462;-69
2024/01/23 05:47:23;;;;;;;35.05;7.35;;;7.60;99.90;;;;;;5033462;28;20032;-68
2024/01/23 05:49:49;;;;;;;36.20;6.55;;;7.60;99.90;;;;;;5033334;28;20031;-70
2024/01/23 05:52:15;;;;;;;40.63;6.95;;;7.60;99.90;;;;;;5033343;28;20024;-68
2024/01/23 05:54:41;;;;;;;34.13;6.90;;;7.50;99.90;;;;;;5033257;28;20018;-69
2024/01/23 05:57:08;;;;;;;34.00;6.70;;;7.50;99.90;;;;;;5032947;28;20450;-68
2024/01/23 05:59:34;;;;;;;40.22;6.82;;;7.50;99.90;;;;;;5030633;28;20551;-69
2024/01/23 06:02:00;;;;;;;36.42;7.32;;;7.50;99.90;;;;;;5033125;28;20045;-68
2024/01/23 06:04:26;;;;;;;38.72;7.15;;;7.50;99.90;;;;;;5033168;28;20096;-68
2024/01/23 06:06:51;;;;;;;29.17;6.97;;;7.50;99.90;;;;;;5032983;28;20021;-68
2024/01/23 06:09:17;;;;;;;36.25;7.78;;;7.50;99.90;;;;;;5033598;28;20425;-68
2024/01/23 06:11:43;;;;;;;35.28;7.38;;;7.50;99.90;;;;;;5033473;28;20431;-68
2024/01/23 06:14:08;;;;;;;37.28;6.65;;;7.50;99.90;;;;;;5033101;28;20441;-68
2024/01/23 06:16:34;;;;;;;33.38;6.72;;;7.50;99.90;;;;;;5033188;28;20017;-68
2024/01/23 06:18:59;;;;;;;33.65;6.63;;;7.50;99.90;;;;;;5033270;28;20042;-69
2024/01/23 06:21:25;;;;;;;36.75;7.18;;;7.50;99.90;;;;;;5033263;28;20424;-69
2024/01/23 06:23:50;;;;;;;40.85;7.45;;;7.50;99.90;;;;;;5033421;28;20037;-69
2024/01/23 06:26:17;;;;;;;34.75;5.55;;;7.50;99.90;;;;;;5032860;28;20047;-68
2024/01/23 06:28:43;;;;;;;31.83;6.38;;;7.50;99.90;;;;;;5032765;28;20055;-68
2024/01/23 06:31:08;;;;;;;34.33;6.93;;;7.50;99.90;;;;;;5035459;28;20033;-69
2024/01/23 06:33:34;;;;;;;34.40;8.18;;;7.50;99.90;;;;;;5036838;28;20056;-69
2024/01/23 06:35:59;;;;;;;36.28;7.85;;;7.50;99.90;;;;;;5052515;28;20029;-69
2024/01/23 06:38:25;;;;;;;38.50;7.85;;;7.50;99.90;;;;;;5043680;28;20034;-69
2024/01/23 06:40:51;;;;;;;40.00;7.90;;;7.50;99.90;;;;;;5045104;28;20057;-69
2024/01/23 06:43:16;;;;;;;33.80;7.18;;;7.50;99.90;;;;;;5036357;28;20030;-69
2024/01/23 06:45:42;;;;;;;38.55;7.40;;;7.40;99.90;;;;;;5049064;28;20037;-68
2024/01/23 06:48:07;;;;;;;36.60;7.65;;;7.40;99.90;;;;;;5039362;28;20040;-69
2024/01/23 06:50:33;;;;;;;31.23;7.05;;;7.40;99.90;;;;;;5042071;28;20022;-69
2024/01/23 06:52:58;;;;;;;33.35;7.25;;;7.40;99.90;;;;;;5045995;28;20029;-69
2024/01/23 06:55:24;;;;;;;42.90;7.80;;;7.40;99.90;;;;;;5035011;28;20013;-69
2024/01/23 06:57:50;;;;;;;33.58;7.30;;;7.40;99.90;;;;;;5046867;28;20028;-69
2024/01/23 07:00:16;;;;;;;36.80;7.45;;;7.40;99.90;;;;;;5040291;28;20049;-69
2024/01/23 07:02:42;;;;;;;36.58;8.25;;;7.40;99.90;;;;;;5039659;28;20034;-69
2024/01/23 07:05:07;;;;;;;41.53;7.95;;;7.30;99.90;;;;;;5038669;28;20026;-69
2024/01/23 07:07:35;;;;;;;37.63;7.60;;;7.30;99.90;;;;;;5048996;28;20067;-69
2024/01/23 07:10:00;;;;;;;32.53;7.38;;;7.40;99.90;;;;;;5037947;28;20037;-69
2024/01/23 07:12:26;;;;;;;32.85;7.20;;;7.40;99.90;;;;;;5043336;28;20048;-68
2024/01/23 07:14:51;;;;;;;39.80;8.25;;;7.30;99.90;;;;;;5032812;28;20353;-68
2024/01/23 07:17:17;;;;;;;36.60;9.02;;;7.30;99.90;;;;;;5033771;28;20107;-68
2024/01/23 07:19:43;;;;;;;45.55;8.85;;;7.30;99.90;;;;;;5033853;28;20116;-68
2024/01/23 07:22:08;;;;;;;46.35;8.68;;;7.30;99.90;;;;;;5033764;28;20033;-68
2024/01/23 07:24:34;;;;;;;39.15;8.05;;;7.30;99.90;;;;;;5031611;28;20033;-69
2024/01/23 07:26:59;;;;;;;32.05;7.35;;;7.30;99.90;;;;;;5032077;28;20029;-69
2024/01/23 07:29:25;;;;;;;37.25;9.35;;;7.30;99.90;;;;;;5031679;28;20105;-69
2024/01/23 07:31:50;;;;;;;46.17;12.20;;;7.30;99.90;;;;;;5031911;28;20418;-69
2024/01/23 07:34:16;;;;;;;38.42;8.77;;;7.30;99.90;;;;;;5031857;28;20038;-69
2024/01/23 07:36:42;;;;;;;41.70;8.43;;;7.20;99.90;;;;;;5031754;28;20026;-68
2024/01/23 07:39:08;;;;;;;36.42;8.95;;;7.20;99.90;;;;;;5031156;28;20126;-68
2024/01/23 07:41:33;;;;;;;37.95;8.68;;;7.20;99.90;;;;;;5031246;28;20108;-68
2024/01/23 07:43:59;;;;;;;35.72;8.75;;;7.20;99.90;;;;;;5031433;28;20033;-68
2024/01/23 07:46:26;;;;;;;38.35;8.68;;;7.20;99.90;;;;;;5031862;28;20021;-69
2024/01/23 07:48:52;;;;;;;42.60;9.27;;;7.20;99.90;;;;;;5032005;28;20045;-69
2024/01/23 07:51:17;;;;;;;44.78;8.82;;;7.20;99.90;;;;;;5031768;28;20111;-69
2024/01/23 07:53:44;;;;;;;36.47;8.35;;;7.20;99.90;;;;;;5031149;28;20029;-69
2024/01/23 07:56:09;;;;;;;43.47;9.25;;;7.20;99.90;;;;;;5031603;28;20026;-69
2024/01/23 07:58:35;;;;;;;39.65;8.32;;;7.20;99.90;;;;;;5031333;28;20033;-68
2024/01/23 08:01:00;;;;;;;35.30;8.77;;;7.20;99.90;;;;;;5030206;28;20052;-69
2024/01/23 08:03:26;;;;;;;43.25;9.27;;;7.20;99.90;;;;;;5031683;28;20520;-69
2024/01/23 08:05:52;;;;;;;36.70;8.43;;;7.20;99.90;;;;;;5031300;28;20108;-69
2024/01/23 08:08:17;;;;;;;37.55;7.63;;;7.20;99.90;;;;;;5034170;28;20022;-68
2024/01/23 08:10:44;;;;;;;35.45;7.60;;;7.20;99.90;;;;;;5034537;28;20037;-68
2024/01/23 08:13:09;;;;;;;39.28;7.95;;;7.30;99.90;;;;;;5034918;28;20033;-68
2024/01/23 08:15:35;;;;;;;41.20;8.10;;;7.30;99.90;;;;;;5031526;28;20095;-68
2024/01/23 08:18:03;;;;;;;29.55;7.75;;;7.30;99.90;;;;;;5034860;28;20025;-68
2024/01/23 08:20:29;;;;;;;41.95;8.43;;;7.40;99.90;;;;;;5034919;28;20072;-69
2024/01/23 08:22:55;;;;;;;37.75;7.20;;;7.40;99.90;;;;;;5034479;28;20021;-68
2024/01/23 08:25:20;;;;;;;37.40;9.07;;;7.40;99.90;;;;;;5033742;28;20036;-69
2024/01/23 08:27:46;;;;;;;36.92;7.72;;;7.40;99.90;;;;;;5034287;28;20040;-68
2024/01/23 08:30:12;;;;;;;32.08;6.72;;;7.60;99.90;;;;;;5034534;28;20029;-68
2024/01/23 08:32:37;;;;;;;33.90;7.60;;;7.60;99.90;;;;;;5033960;28;20021;-68
2024/01/23 08:35:03;;;;;;;50.28;11.73;;;7.70;99.90;;;;;;5033459;28;20049;-69
2024/01/23 08:37:29;;;;;;;38.40;7.55;;;7.70;99.90;;;;;;5034319;28;20122;-69
2024/01/23 08:39:54;;;;;;;33.72;6.78;;;7.80;99.90;;;;;;5033585;28;20059;-69
2024/01/23 08:42:20;;;;;;;40.65;8.10;;;7.90;99.90;;;;;;5034304;28;20037;-69
2024/01/23 08:44:46;;;;;;;37.03;7.22;;;8.10;99.90;;;;;;5033617;28;20022;-69
2024/01/23 08:47:12;;;;;;;37.22;7.15;;;8.20;99.90;;;;;;5033938;28;20025;-69
2024/01/23 08:49:37;;;;;;;42.20;7.93;;;8.30;99.90;;;;;;5034517;28;20022;-69
2024/01/23 08:52:03;;;;;;;35.97;7.15;;;8.30;99.90;;;;;;5031875;28;20060;-69
2024/01/23 08:54:29;;;;;;;34.95;7.68;;;8.30;99.90;;;;;;5030216;28;20033;-69
2024/01/23 08:56:56;;;;;;;38.42;7.18;;;8.40;99.90;;;;;;5033230;28;20022;-69
2024/01/23 08:59:22;;;;;;;37.38;7.50;;;8.40;99.90;;;;;;5034788;28;20091;-69
2024/01/23 09:01:47;;;;;;;39.35;8.35;;;8.40;99.90;;;;;;5034656;28;20461;-69
2024/01/23 09:04:13;;;;;;;42.53;7.57;;;8.40;99.90;;;;;;5034153;28;20052;-69
2024/01/23 09:06:38;;;;;;;34.40;7.45;;;8.30;99.90;;;;;;5034302;28;20478;-69
2024/01/23 09:09:04;;;;;;;46.53;14.25;;;8.30;99.90;;;;;;5034366;28;20523;-69
2024/01/23 09:11:29;;;;;;;40.92;8.57;;;8.30;99.90;;;;;;5034213;28;20450;-69
2024/01/23 09:13:55;;;;;;;37.60;7.78;;;8.30;99.90;;;;;;5033782;28;20055;-69
2024/01/23 09:16:21;;;;;;;34.78;7.38;;;8.40;99.90;;;;;;5034390;28;20440;-69
2024/01/23 09:18:48;;;;;;;39.85;7.85;;;8.40;99.90;;;;;;5032937;28;20449;-69
2024/01/23 09:21:14;;;;;;;36.00;7.18;;;8.40;99.90;;;;;;5033615;28;20112;-69
2024/01/23 09:23:40;;;;;;;49.72;7.28;;;8.40;99.90;;;;;;5033269;28;20079;-69
2024/01/23 09:26:05;;;;;;;37.83;7.40;;;8.50;99.90;;;;;;5033376;28;20027;-69
2024/01/23 09:28:31;;;;;;;33.88;7.15;;;8.70;99.90;;;;;;5033441;28;20079;-69
2024/01/23 09:30:57;;;;;;;37.13;7.93;;;8.70;99.90;;;;;;5033393;28;20032;-69
2024/01/23 09:33:22;;;;;;;39.70;8.35;;;8.80;99.90;;;;;;5033518;28;20354;-69
2024/01/23 09:35:48;;;;;;;49.78;9.05;;;8.90;99.90;;;;;;5032768;28;20714;-69
2024/01/23 09:38:14;;;;;;;33.25;6.70;;;9.00;99.90;;;;;;5031462;28;20385;-69
2024/01/23 09:40:41;;;;;;;35.97;6.78;;;9.10;99.90;;;;;;5031987;28;20033;-69
2024/01/23 09:43:12;;;;;;;27.65;5.70;;;9.10;99.90;;;;;;5032939;28;20025;-68
2024/01/23 09:45:39;;;;;;;37.80;7.43;;;9.10;99.90;;;;;;5030861;28;20048;-69
2024/01/23 09:48:08;;;;;;;32.40;7.10;;;9.20;99.90;;;;;;5030902;28;20037;-69
2024/01/23 09:50:36;;;;;;;31.45;6.55;;;9.30;99.90;;;;;;5031509;28;20124;-69
2024/01/23 09:53:03;;;;;;;37.55;7.13;;;9.30;99.90;;;;;;5033018;28;20026;-69
2024/01/23 09:55:29;;;;;;;31.02;6.00;;;9.50;99.90;;;;;;5032766;28;20040;-69
2024/01/23 09:57:55;;;;;;;31.55;7.35;;;9.50;99.90;;;;;;5032529;28;20041;-70
2024/01/23 10:00:21;;;;;;;30.23;7.38;;;9.50;99.90;;;;;;5031446;28;20033;-68
2024/01/23 10:02:46;;;;;;;36.47;6.80;;;9.80;99.90;;;;;;5031480;28;20032;-68
2024/01/23 10:05:17;;;;;;;39.97;6.53;;;10.10;99.90;;;;;;5030075;28;20029;-69
2024/01/23 10:07:43;;;;;;;36.50;6.07;;;10.40;99.90;;;;;;5031986;28;20432;-69
2024/01/23 10:10:17;;;;;;;33.95;6.93;;;10.50;99.90;;;;;;5032872;28;20091;-68
2024/01/23 10:12:47;;;;;;;34.50;6.65;;;10.80;99.90;;;;;;5032424;28;20551;-68
2024/01/23 10:15:16;;;;;;;27.23;5.22;;;11.20;99.90;;;;;;5030872;28;20397;-69
2024/01/23 10:17:44;;;;;;;30.73;5.75;;;11.80;99.90;;;;;;5028721;28;20036;-69
2024/01/23 10:20:09;;;;;;;31.67;6.45;;;11.90;99.90;;;;;;5033071;28;20033;-69
2024/01/23 10:22:35;;;;;;;33.45;6.75;;;12.00;99.90;;;;;;5032489;28;20104;-69
2024/01/23 10:25:03;;;;;;;26.85;6.15;;;12.00;99.90;;;;;;5031854;28;20100;-69
2024/01/23 10:27:30;;;;;;;32.72;6.10;;;11.80;99.90;;;;;;5031566;28;20040;-70
2024/01/23 10:29:56;;;;;;;31.02;6.30;;;11.60;99.90;;;;;;5032127;28;20034;-69
2024/01/23 10:32:23;;;;;;;33.25;7.22;;;11.30;99.90;;;;;;5032319;28;20052;-69
2024/01/23 10:34:53;;;;;;;34.17;6.28;;;11.10;99.90;;;;;;5032079;28;20450;-69
2024/01/23 10:37:20;;;;;;;31.08;5.63;;;11.00;99.90;;;;;;5028511;28;20358;-69
2024/01/23 10:39:48;;;;;;;31.48;5.93;;;11.00;99.90;;;;;;5030947;28;20045;-69
2024/01/23 10:42:16;;;;;;;32.72;5.15;;;11.00;99.90;;;;;;5032242;28;20373;-69
2024/01/23 10:44:44;;;;;;;32.33;7.03;;;11.00;99.90;;;;;;5031245;28;20112;-69
2024/01/23 10:47:09;;;;;;;26.02;5.85;;;11.00;99.90;;;;;;5030481;28;20036;-69
2024/01/23 10:49:36;;;;;;;34.58;5.88;;;11.00;99.90;;;;;;5032260;28;20021;-69
2024/01/23 10:52:04;;;;;;;32.30;5.78;;;10.80;99.90;;;;;;5032210;28;20152;-68
2024/01/23 10:54:32;;;;;;;31.30;5.97;;;10.80;99.90;;;;;;5030701;28;20113;-69
2024/01/23 10:56:59;;;;;;;34.90;6.68;;;10.90;99.90;;;;;;5027292;28;20025;-68
2024/01/23 10:59:30;;;;;;;33.63;7.22;;;11.00;99.90;;;;;;5032056;28;20033;-69
2024/01/23 11:02:02;;;;;;;27.75;6.07;;;11.20;99.90;;;;;;5032083;28;20116;-68
2024/01/23 11:04:28;;;;;;;30.83;5.75;;;11.00;99.90;;;;;;5029852;28;20021;-69
2024/01/23 11:06:58;;;;;;;33.70;6.57;;;10.90;99.90;;;;;;5031066;28;20476;-69
2024/01/23 11:09:34;;;;;;;33.17;6.32;;;11.00;99.90;;;;;;5031986;28;20484;-69
2024/01/23 11:12:27;;;;;;;31.92;5.80;;;10.90;99.90;;;;;;5031342;28;20721;-69
2024/01/23 11:15:01;;;;;;;29.25;5.50;;;10.80;99.90;;;;;;5028230;28;20033;-69
2024/01/23 11:17:32;;;;;;;31.98;5.28;;;10.70;99.90;;;;;;5027645;28;20025;-69
2024/01/23 11:20:24;;;;;;;22.30;4.70;;;10.70;99.90;;;;;;5030271;28;20217;-69
2024/01/23 11:22:50;;;;;;;31.17;5.00;;;10.70;99.90;;;;;;5030104;28;20271;-69
2024/01/23 11:25:17;;;;;;;22.92;4.65;;;10.90;99.90;;;;;;5031624;28;20350;-69
2024/01/23 11:27:47;;;;;;;22.33;4.03;;;11.10;99.90;;;;;;5032152;28;20049;-69
2024/01/23 11:30:13;;;;;;;27.55;5.03;;;11.10;99.90;;;;;;5031773;28;20480;-69
2024/01/23 11:32:39;;;;;;;32.67;6.20;;;11.10;99.90;;;;;;5029076;28;20109;-70
2024/01/23 11:35:07;;;;;;;26.38;5.22;;;11.30;99.90;;;;;;5028580;28;20046;-69
2024/01/23 11:37:33;;;;;;;25.50;5.15;;;11.60;99.90;;;;;;5030704;28;20029;-69
2024/01/23 11:39:59;;;;;;;22.20;4.57;;;12.10;99.90;;;;;;5029806;28;20044;-69
2024/01/23 11:42:37;;;;;;;24.65;5.07;;;12.50;99.90;;;;;;5033191;28;20366;-69
2024/01/23 11:45:26;;;;;;;18.45;4.10;;;12.60;99.90;;;;;;5034052;28;20028;-69
2024/01/23 11:48:00;;;;;;;24.92;4.78;;;12.60;99.90;;;;;;5032899;28;20034;-69
2024/01/23 11:50:28;;;;;;;24.25;5.10;;;12.70;99.90;;;;;;5032477;28;20084;-69
2024/01/23 11:52:56;;;;;;;25.75;4.35;;;12.50;99.90;;;;;;5034202;28;20109;-68
2024/01/23 11:55:22;;;;;;;27.55;4.65;;;12.60;99.90;;;;;;5034472;28;20033;-69
2024/01/23 11:57:58;;;;;;;21.23;4.28;;;12.70;99.90;;;;;;5035546;28;20477;-69
2024/01/23 12:00:25;;;;;;;27.30;4.78;;;12.80;99.90;;;;;;5032189;28;20095;-69
2024/01/23 12:02:51;;;;;;;26.13;4.03;;;13.00;99.90;;;;;;5032560;28;20033;-69
2024/01/23 12:05:17;;;;;;;22.27;3.53;;;13.20;99.90;;;;;;5034024;28;20492;-68
2024/01/23 12:07:43;;;;;;;21.80;3.67;;;13.20;99.90;;;;;;5032533;28;20033;-68
2024/01/23 12:10:18;;;;;;;18.05;3.40;;;13.30;99.90;;;;;;5034938;28;20091;-69
2024/01/23 12:12:44;;;;;;;26.98;4.65;;;13.20;99.90;;;;;;5032439;28;20029;-68
2024/01/23 12:15:10;;;;;;;26.30;6.15;;;13.10;99.90;;;;;;5034353;28;20030;-68
2024/01/23 12:17:37;;;;;;;22.20;4.60;;;12.90;99.90;;;;;;5032205;28;20025;-70
2024/01/23 12:20:09;;;;;;;23.75;4.50;;;13.00;99.90;;;;;;5031786;28;20038;-70
2024/01/23 12:22:36;;;;;;;23.00;4.20;;;13.10;99.90;;;;;;5034476;28;20034;-68
2024/01/23 12:25:03;;;;;;;21.08;4.18;;;12.80;99.90;;;;;;5032335;28;20025;-69
2024/01/23 12:27:30;;;;;;;19.95;4.45;;;12.70;99.90;;;;;;5034675;28;20056;-69
2024/01/23 12:29:56;;;;;;;20.55;4.07;;;12.60;99.90;;;;;;5034276;28;20037;-69
2024/01/23 12:32:27;;;;;;;28.83;4.78;;;12.50;99.90;;;;;;5031736;28;20061;-69
2024/01/23 12:34:52;;;;;;;25.75;4.53;;;12.40;99.90;;;;;;5034279;28;20416;-69
2024/01/23 12:37:18;;;;;;;23.83;5.25;;;12.20;99.90;;;;;;5034306;28;20030;-69
2024/01/23 12:39:43;;;;;;;22.75;3.67;;;12.10;99.90;;;;;;5034117;28;20029;-69
2024/01/23 12:42:09;;;;;;;22.45;4.25;;;12.00;99.90;;;;;;5031978;28;20067;-69
2024/01/23 12:44:36;;;;;;;24.30;4.20;;;11.80;99.90;;;;;;5034535;28;20021;-69
2024/01/23 12:47:07;;;;;;;21.92;3.97;;;11.70;99.90;;;;;;5034407;28;20151;-69
2024/01/23 12:49:36;;;;;;;25.10;4.63;;;11.50;99.90;;;;;;5032564;28;20025;-70
2024/01/23 12:52:02;;;;;;;21.50;4.45;;;11.40;99.90;;;;;;5033673;28;20041;-70
2024/01/23 12:54:28;;;;;;;27.02;4.32;;;11.30;99.90;;;;;;5033598;28;20033;-69
2024/01/23 12:56:53;;;;;;;20.10;4.18;;;11.20;99.90;;;;;;5031866;28;20026;-69
2024/01/23 12:59:20;;;;;;;21.15;4.45;;;11.20;99.90;;;;;;5028165;28;20034;-70
2024/01/23 13:01:45;;;;;;;17.15;4.18;;;11.20;99.90;;;;;;5034104;28;20026;-69
2024/01/23 13:04:11;;;;;;;23.52;5.07;;;11.20;99.90;;;;;;5033845;28;20024;-69
2024/01/23 13:06:37;;;;;;;28.95;5.25;;;11.10;99.90;;;;;;5031249;28;20028;-69
2024/01/23 13:09:03;;;;;;;20.55;4.10;;;11.10;99.90;;;;;;5033002;28;20121;-70
2024/01/23 13:11:28;;;;;;;26.02;4.47;;;10.90;99.90;;;;;;5033061;28;20108;-70
2024/01/23 13:13:55;;;;;;;27.50;4.57;;;10.80;99.90;;;;;;5033681;28;20466;-69
2024/01/23 13:16:22;;;;;;;28.20;5.38;;;10.70;99.90;;;;;;5032668;28;20048;-69
2024/01/23 13:18:48;;;;;;;31.15;5.15;;;10.60;99.90;;;;;;5032643;28;20087;-69
2024/01/23 13:21:13;;;;;;;28.55;5.68;;;10.60;99.90;;;;;;5032983;28;20022;-69
2024/01/23 13:23:39;;;;;;;29.95;6.00;;;10.50;99.90;;;;;;5031085;28;20500;-69
2024/01/23 13:26:04;;;;;;;33.78;5.68;;;10.50;99.90;;;;;;5032957;28;20017;-69
2024/01/23 13:28:30;;;;;;;28.10;6.22;;;10.40;99.90;;;;;;5033103;28;20033;-70
2024/01/23 13:30:57;;;;;;;28.48;5.95;;;10.40;99.90;;;;;;5033480;28;20064;-69
2024/01/23 13:33:23;;;;;;;29.10;6.15;;;10.40;99.90;;;;;;5033214;28;20041;-69
2024/01/23 13:35:48;;;;;;;26.52;5.60;;;10.30;99.90;;;;;;5033616;28;20049;-70
2024/01/23 13:38:14;;;;;;;31.20;6.53;;;10.20;99.90;;;;;;5033113;28;20021;-69
2024/01/23 13:40:39;;;;;;;19.00;4.03;;;10.20;99.90;;;;;;5033123;28;20362;-69
2024/01/23 13:43:05;;;;;;;32.45;7.05;;;10.20;99.90;;;;;;5032762;28;20036;-69
2024/01/23 13:45:31;;;;;;;30.25;7.00;;;10.10;99.90;;;;;;5030162;28;20033;-69
2024/01/23 13:47:57;;;;;;;33.10;8.35;;;10.00;99.90;;;;;;5031935;28;20110;-68
2024/01/23 13:50:22;;;;;;;35.05;8.68;;;10.00;99.90;;;;;;5032861;28;20032;-68
2024/01/23 13:52:51;;;;;;;27.30;7.68;;;9.90;99.90;;;;;;5029219;28;20029;-69
2024/01/23 13:55:18;;;;;;;33.10;8.07;;;9.80;99.90;;;;;;5031144;28;20021;-69